createdAt,value
2019-03-19T00:03:47.382Z,12.70
2019-03-19T00:06:28.750Z,12.70
2019-03-19T00:09:09.529Z,12.70
2019-03-19T00:11:50.824Z,12.60
2019-03-19T00:14:31.787Z,12.70
2019-03-19T00:17:13.544Z,12.60
2019-03-19T00:19:55.131Z,12.60
2019-03-19T00:22:36.674Z,12.60
2019-03-19T00:25:29.032Z,12.60
2019-03-19T00:28:00.975Z,12.60
2019-03-19T00:30:42.119Z,12.60
2019-03-19T00:33:23.330Z,12.60
2019-03-19T00:36:04.277Z,12.60
2019-03-19T00:38:45.108Z,12.60
2019-03-19T00:41:26.648Z,12.60
2019-03-19T00:44:08.025Z,12.60
2019-03-19T00:46:49.429Z,12.60
2019-03-19T00:49:30.155Z,12.60
2019-03-19T00:52:11.657Z,12.60
2019-03-19T00:54:52.734Z,12.60
2019-03-19T00:57:33.394Z,12.60
2019-03-19T01:00:14.133Z,12.60
2019-03-19T01:02:55.701Z,12.60
2019-03-19T01:05:36.348Z,12.60
2019-03-19T01:08:17.074Z,12.60
2019-03-19T01:10:58.211Z,12.60
2019-03-19T01:13:39.661Z,12.60
2019-03-19T01:16:20.297Z,12.60
2019-03-19T01:19:01.523Z,12.50
2019-03-19T01:21:43.109Z,12.60
2019-03-19T01:24:24.511Z,12.60
2019-03-19T01:27:06.027Z,12.60
2019-03-19T01:29:47.475Z,12.60
2019-03-19T01:32:28.155Z,12.50
2019-03-19T01:35:09.721Z,12.60
2019-03-19T01:37:51.248Z,12.60
2019-03-19T01:40:31.947Z,12.60
2019-03-19T01:43:13.667Z,12.60
2019-03-19T01:45:54.292Z,12.50
2019-03-19T01:48:35.821Z,12.50
2019-03-19T01:51:16.886Z,12.50
2019-03-19T01:53:59.536Z,12.50
2019-03-19T01:56:40.851Z,12.50
2019-03-19T02:02:27.551Z,12.50
2019-03-19T02:05:08.959Z,12.50
2019-03-19T02:07:49.863Z,12.50
2019-03-19T02:10:31.305Z,12.50
2019-03-19T02:13:12.405Z,12.50
2019-03-19T02:15:53.960Z,12.50
2019-03-19T02:24:47.764Z,12.50
2019-03-19T02:27:28.308Z,12.50
2019-03-19T02:29:57.088Z,12.50
2019-03-19T02:32:45.561Z,12.50
2019-03-19T02:38:29.572Z,12.50
2019-03-19T02:41:17.981Z,12.50
2019-03-19T02:49:54.910Z,12.50
2019-03-19T02:52:43.274Z,12.50
2019-03-19T02:58:25.196Z,12.50
2019-03-19T03:01:13.642Z,12.50
2019-03-19T03:06:53.890Z,12.50
2019-03-19T03:09:34.791Z,12.50
2019-03-19T03:12:16.442Z,12.50
2019-03-19T03:14:57.171Z,12.50
2019-03-19T03:17:38.591Z,12.50
2019-03-19T03:20:19.294Z,12.50
2019-03-19T03:22:59.852Z,12.50
2019-03-19T03:25:41.354Z,12.50
2019-03-19T03:28:22.760Z,12.50
2019-03-19T03:31:03.443Z,12.50
2019-03-19T03:33:44.078Z,12.50
2019-03-19T03:36:24.838Z,12.40
2019-03-19T03:39:06.453Z,12.40
2019-03-19T03:41:47.186Z,12.40
2019-03-19T03:44:27.923Z,12.40
2019-03-19T03:47:10.691Z,12.40
2019-03-19T03:49:52.507Z,12.40
2019-03-19T03:52:33.866Z,12.40
2019-03-19T03:55:15.308Z,12.50
2019-03-19T03:57:56.164Z,12.40
2019-03-19T04:00:37.804Z,12.40
2019-03-19T04:03:19.123Z,12.40
2019-03-19T04:06:00.456Z,12.40
2019-03-19T04:08:42.024Z,12.40
2019-03-19T04:11:22.814Z,12.40
2019-03-19T04:14:04.435Z,12.40
2019-03-19T04:16:45.984Z,12.40
2019-03-19T04:19:27.531Z,12.40
2019-03-19T04:22:08.358Z,12.40
2019-03-19T04:24:50.171Z,12.40
2019-03-19T04:27:31.551Z,12.40
2019-03-19T04:30:13.097Z,12.40
2019-03-19T04:32:54.546Z,12.40
2019-03-19T04:35:35.914Z,12.40
2019-03-19T04:38:16.834Z,12.40
2019-03-19T04:40:58.030Z,12.40
2019-03-19T04:43:38.828Z,12.40
2019-03-19T04:46:20.436Z,12.40
2019-03-19T04:49:01.130Z,12.40
2019-03-19T04:51:41.827Z,12.30
2019-03-19T04:54:22.461Z,12.30
2019-03-19T04:57:03.432Z,12.30
2019-03-19T04:59:44.033Z,12.30
2019-03-19T05:02:25.050Z,12.30
2019-03-19T05:05:05.750Z,12.30
2019-03-19T05:07:46.518Z,12.30
2019-03-19T05:10:27.386Z,12.30
2019-03-19T05:13:08.989Z,12.30
2019-03-19T05:15:50.401Z,12.30
2019-03-19T05:18:31.623Z,12.30
2019-03-19T05:21:13.132Z,12.30
2019-03-19T05:23:54.173Z,12.30
2019-03-19T05:26:34.806Z,12.30
2019-03-19T05:29:16.419Z,12.30
2019-03-19T05:31:57.959Z,12.30
2019-03-19T05:34:39.491Z,12.30
2019-03-19T05:37:20.349Z,12.30
2019-03-19T05:40:01.189Z,12.30
2019-03-19T05:42:41.924Z,12.30
2019-03-19T05:45:22.538Z,12.30
2019-03-19T05:48:03.172Z,12.30
2019-03-19T05:50:43.791Z,12.30
2019-03-19T05:53:24.893Z,12.30
2019-03-19T05:56:05.677Z,12.30
2019-03-19T05:58:47.168Z,12.30
2019-03-19T06:01:28.869Z,12.30
2019-03-19T06:04:09.589Z,12.30
2019-03-19T06:06:50.537Z,12.30
2019-03-19T06:09:32.205Z,12.30
2019-03-19T06:12:13.800Z,12.30
2019-03-19T06:14:55.392Z,12.30
2019-03-19T06:17:36.977Z,12.30
2019-03-19T06:20:18.506Z,12.40
2019-03-19T06:23:00.153Z,12.40
2019-03-19T06:25:40.914Z,12.40
2019-03-19T06:28:22.010Z,12.50
2019-03-19T06:31:02.842Z,12.50
2019-03-19T06:33:43.671Z,12.60
2019-03-19T06:36:25.379Z,12.60
2019-03-19T06:39:05.956Z,12.70
2019-03-19T06:41:47.371Z,12.70
2019-03-19T06:44:28.172Z,12.80
2019-03-19T06:47:08.764Z,12.80
2019-03-19T06:49:49.452Z,12.90
2019-03-19T06:52:30.158Z,12.90
2019-03-19T06:55:10.989Z,13.00
2019-03-19T06:57:51.690Z,13.00
2019-03-19T07:00:33.141Z,13.10
2019-03-19T07:03:14.005Z,13.10
2019-03-19T07:05:54.785Z,13.20
2019-03-19T07:08:35.444Z,13.20
2019-03-19T07:11:17.356Z,13.30
2019-03-19T07:13:58.734Z,13.30
2019-03-19T07:16:39.697Z,13.40
2019-03-19T07:19:20.524Z,13.40
2019-03-19T07:22:01.858Z,13.50
2019-03-19T07:24:42.506Z,13.50
2019-03-19T07:27:23.771Z,13.60
2019-03-19T07:30:04.888Z,13.60
2019-03-19T07:32:46.368Z,13.60
2019-03-19T07:35:27.284Z,13.70
2019-03-19T07:38:08.567Z,13.70
2019-03-19T07:40:50.094Z,13.70
2019-03-19T07:43:31.738Z,13.80
2019-03-19T07:46:13.045Z,13.80
2019-03-19T07:48:53.663Z,13.80
2019-03-19T07:51:34.554Z,13.90
2019-03-19T07:54:15.354Z,13.90
2019-03-19T07:56:56.055Z,13.90
2019-03-19T07:59:37.739Z,14.00
2019-03-19T08:02:19.314Z,14.00
2019-03-19T08:05:00.825Z,14.00
2019-03-19T08:07:41.655Z,14.00
2019-03-19T08:10:23.298Z,14.10
2019-03-19T08:13:04.031Z,14.10
2019-03-19T08:15:44.782Z,14.10
2019-03-19T08:18:25.434Z,14.20
2019-03-19T08:21:06.995Z,14.20
2019-03-19T08:23:48.290Z,14.20
2019-03-19T08:26:29.371Z,14.20
2019-03-19T08:29:10.898Z,14.30
2019-03-19T08:31:52.618Z,14.30
2019-03-19T08:34:33.794Z,14.30
2019-03-19T08:37:15.670Z,14.40
2019-03-19T08:39:56.851Z,14.40
2019-03-19T08:42:37.983Z,14.40
2019-03-19T08:45:18.977Z,14.40
2019-03-19T08:48:00.589Z,14.50
2019-03-19T08:50:41.328Z,14.50
2019-03-19T08:53:22.100Z,14.50
2019-03-19T08:56:03.881Z,14.50
2019-03-19T08:58:45.213Z,14.50
2019-03-19T09:01:26.752Z,14.50
2019-03-19T09:04:08.346Z,14.60
2019-03-19T09:06:49.838Z,14.60
2019-03-19T09:09:30.836Z,14.60
2019-03-19T09:15:16.656Z,14.60
2019-03-19T09:17:57.572Z,14.60
2019-03-19T09:20:38.278Z,14.60
2019-03-19T09:23:38.161Z,14.70
2019-03-19T09:26:18.945Z,14.70
2019-03-19T09:28:59.838Z,14.70
2019-03-19T09:38:05.986Z,14.60
2019-03-19T09:41:05.630Z,14.60
2019-03-19T09:43:46.367Z,14.60
2019-03-19T09:46:27.203Z,14.50
2019-03-19T09:49:08.640Z,14.50
2019-03-19T09:51:50.059Z,14.50
2019-03-19T09:54:32.286Z,14.40
2019-03-19T10:00:33.073Z,14.40
2019-03-19T10:03:13.830Z,14.30
2019-03-19T10:09:14.669Z,14.30
2019-03-19T10:12:14.905Z,14.30
2019-03-19T10:14:56.305Z,14.20
2019-03-19T10:17:37.878Z,14.30
2019-03-19T10:20:19.498Z,14.30
2019-03-19T10:23:00.857Z,14.30
2019-03-19T10:25:42.333Z,14.20
2019-03-19T10:28:23.866Z,14.20
2019-03-19T10:31:05.467Z,14.20
2019-03-19T10:33:46.391Z,14.20
2019-03-19T10:36:28.190Z,14.20
2019-03-19T10:42:19.854Z,14.20
2019-03-19T10:51:11.265Z,14.20
2019-03-19T10:57:01.510Z,14.20
2019-03-19T10:59:49.130Z,14.20
2019-03-19T11:02:26.471Z,14.20
2019-03-19T11:05:07.784Z,14.20
2019-03-19T11:11:08.506Z,14.10
2019-03-19T11:13:49.239Z,14.20
2019-03-19T11:16:30.733Z,14.20
2019-03-19T11:19:30.298Z,14.20
2019-03-19T11:25:31.361Z,14.10
2019-03-19T11:28:13.896Z,14.10
2019-03-19T11:30:54.919Z,14.10
2019-03-19T11:33:35.555Z,14.20
2019-03-19T11:36:16.305Z,14.20
2019-03-19T11:38:57.933Z,14.20
2019-03-19T11:44:47.660Z,14.10
2019-03-19T11:47:28.601Z,14.10
2019-03-19T11:50:09.951Z,14.10
2019-03-19T11:52:50.702Z,14.10
2019-03-19T11:58:36.900Z,14.10
2019-03-19T12:04:26.477Z,14.10
2019-03-19T12:16:32.544Z,14.10
2019-03-19T12:19:12.055Z,14.10
2019-03-19T12:21:59.435Z,14.10
2019-03-19T12:30:30.858Z,14.10
2019-03-19T12:33:18.057Z,14.10
2019-03-19T12:48:18.168Z,14.10
2019-03-19T12:51:06.407Z,14.20
2019-03-19T12:57:02.891Z,14.10
2019-03-19T13:05:56.822Z,14.20
2019-03-19T13:11:43.024Z,14.20
2019-03-19T13:14:24.505Z,14.10
2019-03-19T13:17:05.420Z,14.20
2019-03-19T13:19:46.972Z,14.20
2019-03-19T13:25:32.703Z,14.20
2019-03-19T13:28:14.227Z,14.20
2019-03-19T13:30:54.861Z,14.20
2019-03-19T13:33:35.699Z,14.20
2019-03-19T13:36:17.238Z,14.20
2019-03-19T13:38:57.922Z,14.20
2019-03-19T13:41:57.544Z,14.20
2019-03-19T13:44:39.090Z,14.10
2019-03-19T13:47:20.708Z,14.10
2019-03-19T13:53:12.742Z,14.20
2019-03-19T13:55:54.021Z,14.10
2019-03-19T13:58:53.824Z,14.10
2019-03-19T14:01:53.652Z,14.10
2019-03-19T14:04:34.226Z,14.10
2019-03-19T14:07:15.097Z,14.10
2019-03-19T14:09:56.706Z,14.10
2019-03-19T14:12:38.250Z,14.10
2019-03-19T14:15:18.908Z,14.10
2019-03-19T14:17:59.796Z,14.10
2019-03-19T14:20:59.941Z,14.10
2019-03-19T14:26:46.570Z,14.00
2019-03-19T14:35:40.826Z,14.00
2019-03-19T14:38:22.111Z,14.00
2019-03-19T14:41:03.427Z,14.00
2019-03-19T14:46:49.856Z,14.00
2019-03-19T14:52:36.456Z,13.90
2019-03-19T14:55:18.993Z,13.90
2019-03-19T15:01:05.566Z,13.90
2019-03-19T15:03:46.967Z,13.90
2019-03-19T15:06:28.495Z,13.90
2019-03-19T15:09:09.545Z,13.90
2019-03-19T15:11:51.222Z,13.90
2019-03-19T15:14:31.944Z,13.90
2019-03-19T15:17:12.710Z,13.90
2019-03-19T15:26:12.507Z,13.90
2019-03-19T15:28:53.660Z,13.90
2019-03-19T15:31:34.392Z,13.90
2019-03-19T15:34:15.244Z,13.90
2019-03-19T15:36:56.008Z,13.80
2019-03-19T15:42:45.397Z,13.80
2019-03-19T15:45:26.698Z,13.80
2019-03-19T15:48:07.461Z,13.80
2019-03-19T15:50:48.235Z,13.80
2019-03-19T15:56:48.825Z,13.80
2019-03-19T15:59:29.764Z,13.80
2019-03-19T16:02:11.339Z,13.80
2019-03-19T16:04:52.823Z,13.80
2019-03-19T16:07:34.264Z,13.80
2019-03-19T16:10:15.663Z,13.80
2019-03-19T16:12:56.426Z,13.80
2019-03-19T16:15:38.241Z,13.80
2019-03-19T16:18:19.513Z,13.80
2019-03-19T16:24:12.155Z,13.80
2019-03-19T16:30:02.244Z,13.70
2019-03-19T16:38:53.985Z,13.70
2019-03-19T16:41:35.478Z,13.70
2019-03-19T16:47:35.360Z,13.70
2019-03-19T16:50:16.888Z,13.70
2019-03-19T16:52:57.868Z,13.70
2019-03-19T16:55:39.460Z,13.70
2019-03-19T17:04:38.599Z,13.60
2019-03-19T17:13:29.724Z,13.60
2019-03-19T17:16:11.208Z,13.60
2019-03-19T17:18:51.865Z,13.60
2019-03-19T17:21:33.443Z,13.60
2019-03-19T17:24:14.378Z,13.60
2019-03-19T17:30:02.838Z,13.60
2019-03-19T17:32:51.481Z,13.50
2019-03-19T17:45:13.941Z,13.50
2019-03-19T17:48:02.311Z,13.50
2019-03-19T17:54:11.280Z,13.50
2019-03-19T17:56:47.432Z,13.50
2019-03-19T17:59:35.791Z,13.50
2019-03-19T18:06:09.544Z,13.40
2019-03-19T18:08:51.039Z,13.40
2019-03-19T18:11:50.904Z,13.40
2019-03-19T18:17:58.425Z,13.40
2019-03-19T18:23:55.956Z,13.40
2019-03-19T18:26:56.154Z,13.40
2019-03-19T18:38:52.480Z,13.40
2019-03-19T18:41:33.361Z,13.30
2019-03-19T18:47:18.019Z,13.30
2019-03-19T18:49:58.700Z,13.30
2019-03-19T18:52:39.620Z,13.30
2019-03-19T19:01:48.742Z,13.30
2019-03-19T19:10:41.417Z,13.30
2019-03-19T19:19:43.369Z,13.30
2019-03-19T19:31:51.266Z,13.20
2019-03-19T19:34:32.907Z,13.20
2019-03-19T19:37:14.487Z,13.20
2019-03-19T19:55:21.315Z,13.20
2019-03-19T19:58:21.032Z,13.20
2019-03-19T20:04:25.707Z,13.20
2019-03-19T20:07:25.848Z,13.20
2019-03-19T20:16:41.041Z,13.20
2019-03-19T20:22:37.878Z,13.10
2019-03-19T20:28:23.673Z,13.10
2019-03-19T20:37:21.399Z,13.10
2019-03-19T20:54:34.447Z,13.10
2019-03-19T20:57:22.125Z,13.10
2019-03-19T21:03:56.239Z,13.10
2019-03-19T21:09:42.710Z,13.10
2019-03-19T21:15:28.020Z,13.10
2019-03-19T21:30:25.051Z,13.00
2019-03-19T21:39:37.126Z,13.00
2019-03-19T21:51:44.761Z,13.00
2019-03-19T22:06:42.839Z,12.90
2019-03-19T22:18:47.685Z,12.90
2019-03-19T22:28:10.115Z,12.90
2019-03-19T22:43:11.613Z,12.90
2019-03-19T22:45:53.033Z,12.90
2019-03-19T22:48:52.521Z,12.90
2019-03-19T22:54:53.102Z,12.90
2019-03-19T22:57:53.646Z,12.90
2019-03-19T23:03:38.654Z,12.90
2019-03-19T23:09:25.641Z,12.90
2019-03-19T23:12:07.130Z,12.90
2019-03-19T23:21:24.849Z,12.90
2019-03-19T23:24:05.612Z,12.90
2019-03-19T23:26:47.207Z,12.80
2019-03-19T23:29:28.607Z,12.90
2019-03-19T23:41:36.469Z,12.80
2019-03-19T23:50:25.694Z,12.80
